Terminal Aerodrome Forecast
Issued by NWS

Home | Current Version | Previous Version | Text Only | Print | Product List | Glossary On
Versions: 1 2 3 4 5 6 7 8 9 10 11 12 13 14
000
FTUS45 KABQ 292300
TAFLVS
TAF
KLVS 292325Z 3000/3024 11010KT P6SM SCT040 BKN080
     FM300300 14010KT P6SM VCSH OVC035
      TEMPO 3006/3010 3SM BR OVC025
     FM301500 16010KT 1SM BR OVC010
      TEMPO 3016/3020 3/4SM -SN BR OVC008=

USA.gov is the U.S. government's official web portal to all federal, state and local government web resources and services.